East Pineville, Kentucky
Current Conditions -  °F | °C
As of 10:30 PM on Monday 22 Dec 2014 (Local Time) from K1A6 Reporting Station
Overcast Overcast  
Wind Chill: 48°   Ceiling: 3900
Heat Index: 48°   Visibility: 10mi
Dew Point: 47°   Wind: 0mph
Humidity: 97%   Direction: NA
Pressure: 29.83"   Gusts: NA
Location:  36.7417°N, 83.6911°W
Report Text: K1A6 230330Z AUTO 00000KT 10SM BKN039 BKN050 OVC065 09/09 A2983 RMK AO2 T00890085
Loading
Personal Weather Stations






























Interactive Weather Map New forecast layout! Learn more

10-Day Weather Forecast

Advertisements
Track Severe Weather on mobile